Cheetham Hill, United Kingdom
Current Conditions -  °F | °C
As of 9:20 PM on Thursday 18 Dec 2014 (Local Time) from EGCC Reporting Station
Light Rain Light Rain  
Wind Chill: 54°   Ceiling: 1900
Heat Index: 54°   Visibility: 6mi
Dew Point: 50°   Wind: 18mph
Humidity: 88%   Direction: 240°WSW
Pressure: 29.62"   Gusts: NA
Location:  53.5°N, 2.24°W
Report Text: EGCC 182120Z 24016KT 9999 -RA BKN019 BKN024 12/10 Q1003 TEMPO RA BKN010
Loading
Personal Weather Stations






























Interactive Weather Map New forecast layout! Learn more

10-Day Weather Forecast

Advertisements
Track Severe Weather on mobile